createdAt,value
2022-09-23T00:57:51.993Z,100201.72
2022-09-23T01:08:00.344Z,100196.56
2022-09-23T01:28:50.960Z,100106.94
2022-09-23T01:39:05.275Z,100018.81
2022-09-23T01:49:17.782Z,100130.16
2022-09-23T01:59:29.799Z,99777.78
2022-09-23T02:09:38.754Z,100149.31
2022-09-23T02:19:50.155Z,100025.81
2022-09-23T02:29:58.378Z,100143.94
2022-09-23T02:40:12.995Z,100042.91
2022-09-23T02:50:16.705Z,100042.81
2022-09-23T03:00:22.333Z,100081.84
2022-09-23T03:10:30.269Z,99919.13
2022-09-23T03:20:42.951Z,99940.69
2022-09-23T03:30:47.373Z,100098.50
2022-09-23T03:40:55.078Z,100126.44
2022-09-23T03:51:02.313Z,100063.56
2022-09-23T04:01:15.289Z,100004.19
2022-09-23T04:21:48.886Z,100161.06
2022-09-23T04:31:56.412Z,100152.91
2022-09-23T04:42:01.866Z,99889.59
2022-09-23T04:52:06.103Z,100075.34
2022-09-23T05:02:11.496Z,99893.91
2022-09-23T05:12:15.563Z,100079.66
2022-09-23T05:22:20.203Z,99831.72
2022-09-23T05:32:24.229Z,100067.00
2022-09-23T05:42:31.712Z,100108.94
2022-09-23T05:52:35.677Z,100110.28
2022-09-23T06:02:40.922Z,100142.31
2022-09-23T06:12:45.719Z,100134.59
2022-09-23T06:22:54.516Z,100114.63
2022-09-23T06:32:59.841Z,100063.25
2022-09-23T06:43:14.891Z,100127.41
2022-09-23T06:53:18.884Z,100138.09
2022-09-23T07:03:23.876Z,99783.63
2022-09-23T07:13:28.161Z,100125.63
2022-09-23T07:23:33.878Z,100122.13
2022-09-23T07:33:38.657Z,99831.16
2022-09-23T07:43:44.407Z,100121.84
2022-09-23T07:53:49.396Z,100107.34
2022-09-23T08:03:54.690Z,100067.34
2022-09-23T08:13:58.774Z,100097.16
2022-09-23T08:24:04.099Z,100074.72
2022-09-23T08:34:08.720Z,100117.16
2022-09-23T08:44:20.993Z,99979.50
2022-09-23T08:54:32.066Z,100114.41
2022-09-23T09:04:43.764Z,100102.41
2022-09-23T09:14:57.899Z,99876.22
2022-09-23T09:25:16.242Z,100099.66
2022-09-23T09:35:34.988Z,99976.75
2022-09-23T09:46:02.391Z,100048.41
2022-09-23T09:56:08.148Z,100099.59
2022-09-23T10:06:20.864Z,100029.50
2022-09-23T10:16:25.452Z,100105.06
2022-09-23T10:26:33.182Z,100020.09
2022-09-23T10:36:38.360Z,100006.06
2022-09-23T10:46:55.678Z,100056.44
2022-09-23T10:57:23.996Z,99998.91
2022-09-23T11:07:38.189Z,99993.53
2022-09-23T11:18:23.196Z,100069.88
2022-09-23T11:28:41.345Z,99970.38
2022-09-23T11:38:50.651Z,99898.94
2022-09-23T11:48:59.826Z,99873.56
2022-09-23T11:59:08.406Z,99950.34
2022-09-23T12:09:35.734Z,99971.09
2022-09-23T12:20:02.815Z,100024.53
2022-09-23T12:30:14.983Z,99799.31
2022-09-23T12:40:22.996Z,99814.00
2022-09-23T12:50:56.020Z,100025.88
2022-09-23T13:01:07.605Z,100029.97
2022-09-23T13:11:23.390Z,99807.94
2022-09-23T13:22:02.221Z,99996.56
2022-09-23T13:32:15.589Z,100019.81
2022-09-23T13:42:27.888Z,99974.38
2022-09-23T13:52:34.237Z,100021.66
2022-09-23T14:02:43.393Z,99998.66
2022-09-23T14:12:50.236Z,100023.78
2022-09-23T14:23:11.900Z,99650.06
2022-09-23T14:33:25.542Z,100003.25
2022-09-23T14:43:29.351Z,99956.41
2022-09-23T14:53:41.375Z,100005.84
2022-09-23T15:03:50.651Z,99902.50
2022-09-23T15:13:56.281Z,99992.50
2022-09-23T15:24:00.331Z,99983.53
2022-09-23T15:34:10.546Z,99909.75
2022-09-23T15:44:15.937Z,99943.66
2022-09-23T15:54:21.541Z,99862.50
2022-09-23T16:04:26.836Z,99905.09
2022-09-23T16:14:31.820Z,99925.91
2022-09-23T16:35:09.822Z,99905.69
2022-09-23T16:45:17.099Z,99792.25
2022-09-23T16:55:26.383Z,99672.91
2022-09-23T17:05:29.899Z,99579.47
2022-09-23T17:15:39.612Z,99736.25
2022-09-23T17:25:48.271Z,99859.56
2022-09-23T17:35:57.384Z,99708.22
2022-09-23T17:46:06.948Z,99634.16
2022-09-23T17:56:17.895Z,99770.56
2022-09-23T18:06:22.746Z,99819.13
2022-09-23T18:16:30.873Z,99846.50
2022-09-23T18:26:35.412Z,99581.88
2022-09-23T18:36:41.485Z,99610.22
2022-09-23T18:46:45.528Z,99750.44
2022-09-23T19:07:41.148Z,99707.06
2022-09-23T19:17:45.862Z,99758.44
2022-09-23T19:28:03.969Z,99579.06
2022-09-23T20:09:51.798Z,99527.34
2022-09-23T20:19:55.432Z,99321.28
2022-09-23T20:41:05.617Z,99518.09
2022-09-23T20:51:12.283Z,99672.50
2022-09-23T21:01:24.905Z,99650.69
2022-09-23T21:11:33.032Z,99638.97
2022-09-23T21:21:41.039Z,99616.34
2022-09-23T21:31:43.990Z,99561.03
2022-09-23T21:41:48.749Z,99518.22
2022-09-23T21:51:56.933Z,99483.06
2022-09-23T22:02:01.452Z,99557.78
2022-09-23T22:12:08.018Z,99174.03
2022-09-23T22:43:49.221Z,99450.94
2022-09-23T22:53:59.663Z,99501.66
2022-09-23T23:25:39.777Z,99470.31
2022-09-23T23:35:54.124Z,99415.25
2022-09-23T23:46:01.989Z,99227.25
2022-09-23T23:56:07.725Z,99319.44
